Latest Weather Observations for Adelaide Airport

IDS60801

Issued at 8:41 pm CDT Sunday 24 January 2021 (issued every 10 minutes, with the page automatically refreshed every 10 minutes)

About weather observations | Map of weather stations | Latest weather observations for SA | Other Formats
Station Details ID: 023034 Name: ADELAIDE AIRPORT Lat: -34.95 Lon: 138.52 Height: 2.0 m
Data from the previous 72 hours. | See also: Recent months at Adelaide Airport
Date/Time
CDT
Temp
°C
App
Temp
°C
Dew
Point
°C
Rel
Hum
%
Delta-T
°C
Wind Press
QNH
hPa
Press
MSL
hPa
Rain since
9am
mm
Dir  Spd
km/h
Gust
km/h
Spd
kts
Gust
kts
24/08:30pm 29.0 28.0 13.4 38 9.3 SW 11 11 6 6 1001.3 1001.2 0.0
24/08:00pm 29.6 27.3 11.8 33 10.3 SW 15 17 8 9 1001.3 1001.2 0.0
24/07:30pm 31.9 28.0 8.8 24 13.0 SSW 19 28 10 15 1001.3 1001.2 0.0
24/07:00pm 32.2 28.0 9.6 24 12.8 SSW 22 30 12 16 1001.0 1000.9 0.0
24/06:30pm 34.6 29.0 8.8 20 14.7 SW 28 37 15 20 1000.9 1000.8 0.0
24/06:00pm 37.8 32.2 1.3 10 18.8 SW 20 26 11 14 1000.4 1000.3 0.0
24/05:30pm 37.4 31.4 5.5 14 17.5 SW 26 44 14 24 1000.6 1000.5 0.0
24/05:16pm 34.7 31.4 15.0 30 12.3 NW 26 32 14 17 1000.7 1000.6 0.0
24/05:00pm 40.6 34.3 1.6 9 20.4 NNW 24 32 13 17 1000.6 1000.5 0.0
24/04:30pm 39.4 33.4 5.4 12 18.8 NW 26 35 14 19 1000.9 1000.8 0.0
24/04:00pm 40.2 34.0 4.3 11 19.5 NW 26 35 14 19 1001.4 1001.3 0.0
24/03:30pm 39.7 33.4 3.8 11 19.4 NW 26 33 14 18 1001.7 1001.6 0.0
24/03:00pm 39.6 33.9 6.9 13 18.5 WNW 26 33 14 18 1002.2 1002.1 0.0
24/02:30pm 38.7 33.1 8.6 16 17.4 NW 28 35 15 19 1002.6 1002.5 0.0
24/02:00pm 39.1 32.0 5.4 12 18.5 NW 32 39 17 21 1003.0 1002.9 0.0
24/01:30pm 39.5 31.8 2.4 10 19.6 NW 32 43 17 23 1003.4 1003.3 0.0
24/01:00pm 40.2 32.0 -0.7 8 20.6 NW 32 39 17 21 1003.8 1003.7 0.0
24/12:30pm 40.8 32.3 -3.6 6 21.6 NW 32 41 17 22 1004.0 1003.9 0.0
24/12:18pm 40.9 32.1 -4.5 5 21.7 NW 33 44 18 24 1004.1 1004.0 0.0
24/12:00pm 41.2 34.7 -6.0 5 22.2 N 20 26 11 14 1004.2 1004.1 0.0
24/11:30am 40.7 33.9 -4.7 5 21.7 NNE 22 30 12 16 1004.3 1004.2 0.0
24/11:00am 39.1 32.2 -6.0 5 20.8 NNE 22 30 12 16 1004.5 1004.4 0.0
24/10:30am 37.4 30.0 -6.9 6 20.0 NE 24 32 13 17 1004.7 1004.6 0.0
24/10:00am 36.6 28.7 -8.3 5 19.6 NE 26 33 14 18 1004.9 1004.8 0.0
24/09:30am 36.0 28.0 -5.8 7 19.0 NNE 28 33 15 18 1005.1 1005.0 0.0
24/09:00am 35.0 29.1 -2.3 9 17.8 NE 19 30 10 16 1005.3 1005.2 0.0
24/08:30am 33.4 27.0 0.8 12 16.2 NE 24 33 13 18 1005.3 1005.2 0.0
24/08:00am 32.4 26.0 1.2 13 15.5 NE 24 32 13 17 1005.2 1005.1 0.0
24/07:30am 31.1 24.0 1.3 15 14.7 NE 28 32 15 17 1004.9 1004.8 0.0
24/07:00am 31.1 24.8 1.3 15 14.7 NNE 24 30 13 16 1004.7 1004.6 0.0
24/06:30am 31.3 25.7 1.0 14 14.9 NE 20 26 11 14 1004.6 1004.5 0.0
24/06:00am 31.3 25.4 1.8 15 14.7 NE 22 26 12 14 1004.5 1004.4 0.0
24/05:30am 31.2 25.0 2.4 16 14.5 NE 24 30 13 16 1004.3 1004.2 0.0
24/05:00am 32.0 25.0 1.9 14 15.0 NE 28 37 15 20 1004.4 1004.3 0.0
24/04:30am 32.3 25.7 2.2 15 15.2 NE 26 35 14 19 1004.3 1004.2 0.0
24/04:00am 31.6 24.9 3.7 17 14.3 ENE 28 35 15 19 1004.4 1004.3 0.0
24/03:30am 31.7 25.0 3.9 17 14.4 ENE 28 39 15 21 1004.5 1004.4 0.0
24/03:00am 31.9 24.7 3.2 16 14.7 ENE 30 35 16 19 1004.8 1004.7 0.0
24/02:30am 31.7 25.8 3.9 17 14.4 ENE 24 32 13 17 1005.1 1005.0 0.0
24/02:00am 30.8 26.8 4.8 19 13.5 ENE 15 22 8 12 1005.5 1005.4 0.0
24/01:30am 30.9 26.6 5.3 20 13.5 ENE 17 22 9 12 1005.6 1005.5 0.0
24/01:00am 31.2 26.3 5.2 19 13.7 ENE 20 30 11 16 1005.6 1005.5 0.0
24/12:30am 30.7 25.9 5.5 20 13.3 ENE 20 26 11 14 1006.1 1006.0 0.0
24/12:00am 29.7 26.4 6.2 22 12.5 E 13 20 7 11 1006.4 1006.3 0.0
 
Date/Time
CDT
Temp
°C
App
Temp
°C
Dew
Point
°C
Rel
Hum
%
Delta-T
°C
Wind Press
QNH
hPa
Press
MSL
hPa
Rain since
9am
mm
Dir  Spd
km/h
Gust
km/h
Spd
kts
Gust
kts
23/11:30pm 30.7 26.9 5.9 21 13.2 E 15 20 8 11 1006.7 1006.6 0.0
23/11:00pm 31.5 28.4 5.5 19 13.8 E 11 17 6 9 1006.9 1006.8 0.0
23/10:30pm 30.9 26.1 5.6 20 13.4 ESE 20 26 11 14 1007.0 1006.9 0.0
23/10:00pm 30.5 26.3 7.6 24 12.5 ESE 19 26 10 14 1007.0 1006.9 0.0
23/09:30pm 31.5 27.7 5.8 20 13.7 ESE 15 19 8 10 1007.0 1006.9 0.0
23/09:00pm 31.7 28.0 6.2 20 13.7 ESE 15 20 8 11 1006.9 1006.8 0.0
23/08:30pm 33.2 27.9 4.9 17 15.0 ESE 22 30 12 16 1006.8 1006.7 0.0
23/08:00pm 34.6 28.8 4.4 15 16.0 SE 24 32 13 17 1006.8 1006.7 0.0
23/07:30pm 35.2 30.8 2.8 13 16.8 SSW 15 22 8 12 1006.6 1006.5 0.0
23/07:00pm 35.0 30.1 1.9 12 16.9 SSW 17 24 9 13 1006.6 1006.5 0.0
23/06:30pm 34.6 28.9 0.4 11 17.0 SSW 20 26 11 14 1006.6 1006.5 0.0
23/06:00pm 36.0 29.9 -4.0 7 18.7 SW 19 24 10 13 1006.5 1006.4 0.0
23/05:30pm 35.5 29.9 -6.6 6 18.8 SW 15 17 8 9 1006.5 1006.4 0.0
23/05:00pm 33.7 28.4 -0.7 11 16.6 SW 17 19 9 10 1006.7 1006.6 0.0
23/04:30pm 34.4 29.4 3.6 14 16.1 SW 19 24 10 13 1006.9 1006.8 0.0
23/04:00pm 36.5 31.7 0.2 10 18.2 WSW 15 19 8 10 1007.1 1007.0 0.0
23/03:30pm 35.5 31.1 2.7 13 17.0 WSW 15 20 8 11 1007.5 1007.4 0.0
23/03:00pm 33.2 29.0 5.6 18 14.8 WSW 17 20 9 11 1008.0 1008.0 0.0
23/02:30pm 32.3 27.3 4.7 17 14.5 SW 20 24 11 13 1008.2 1008.2 0.0
23/02:00pm 33.3 29.4 3.3 15 15.5 WSW 13 17 7 9 1008.2 1008.2 0.0
23/01:30pm 31.6 28.6 7.5 22 13.2 SW 13 19 7 10 1008.6 1008.6 0.0
23/01:00pm 30.1 25.8 5.3 21 13.0 WSW 17 20 9 11 1009.0 1009.0 0.0
23/12:30pm 30.7 26.8 3.4 17 13.9 WSW 13 17 7 9 1009.2 1009.2 0.0
23/12:00pm 28.6 24.4 3.6 20 12.6 WSW 15 19 8 10 1009.6 1009.6 0.0
23/11:30am 27.2 24.0 9.8 33 9.7 SW 17 19 9 10 1009.9 1009.9 0.0
23/11:00am 28.4 25.3 7.1 26 11.4 WSW 13 15 7 8 1009.9 1009.9 0.0
23/10:30am 26.5 22.8 6.1 27 10.6 WSW 15 17 8 9 1009.9 1009.9 0.0
23/10:00am 27.3 24.3 6.0 25 11.1 NNE 11 17 6 9 1010.0 1010.0 0.0
23/09:30am 27.1 25.4 8.3 30 10.2 N 7 9 4 5 1010.2 1010.2 0.0
23/09:00am 26.9 23.6 -1.0 16 12.8 N 6 9 3 5 1010.3 1010.3 0.0
23/08:30am 25.6 21.3 -1.9 16 12.3 NE 11 13 6 7 1010.3 1010.3 0.0
23/08:00am 23.2 21.8 3.4 27 9.6 CALM 0 0 0 0 1010.2 1010.2 0.0
23/07:30am 19.9 17.7 5.5 39 7.1 E 6 7 3 4 1010.2 1010.2 0.0
23/07:00am 16.8 14.8 7.2 53 4.8 E 7 9 4 5 1010.1 1010.1 0.0
23/06:30am 16.2 14.4 7.1 55 4.5 ENE 6 7 3 4 1010.0 1010.0 0.0
23/06:00am 16.5 15.3 6.5 51 4.9 NE 2 7 1 4 1009.6 1009.6 0.0
23/05:30am 16.8 14.8 6.4 50 5.1 ESE 6 7 3 4 1009.4 1009.4 0.0
23/05:00am 16.9 14.9 7.3 53 4.8 ESE 7 9 4 5 1009.4 1009.4 0.0
23/04:30am 17.5 15.5 6.9 49 5.3 ESE 7 7 4 4 1009.5 1009.5 0.0
23/04:00am 18.0 16.1 6.8 48 5.6 E 6 7 3 4 1009.5 1009.5 0.0
23/03:30am 18.0 15.9 6.5 47 5.7 ENE 7 7 4 4 1009.5 1009.5 0.0
23/03:00am 18.7 15.5 3.3 36 7.2 ENE 9 11 5 6 1009.6 1009.6 0.0
23/02:30am 18.3 16.1 5.3 42 6.3 N 6 7 3 4 1009.9 1009.9 0.0
23/02:00am 19.7 17.1 1.1 29 8.4 NNW 4 7 2 4 1010.1 1010.1 0.0
23/01:30am 19.0 17.7 4.1 37 7.1 CALM 0 0 0 0 1010.0 1010.0 0.0
23/01:00am 19.8 18.1 1.6 29 8.3 CALM 0 0 0 0 1010.1 1010.1 0.0
23/12:30am 20.7 19.1 2.2 29 8.6 CALM 0 0 0 0 1010.2 1010.2 0.0
23/12:00am 21.9 19.7 0.9 25 9.6 ESE 2 6 1 3 1010.3 1010.3 0.0
 
Date/Time
CDT
Temp
°C
App
Temp
°C
Dew
Point
°C
Rel
Hum
%
Delta-T
°C
Wind Press
QNH
hPa
Press
MSL
hPa
Rain since
9am
mm
Dir  Spd
km/h
Gust
km/h
Spd
kts
Gust
kts
22/11:30pm 22.3 19.8 1.7 25 9.6 SE 4 7 2 4 1010.5 1010.5 0.0
22/11:00pm 21.5 18.2 2.3 28 9.0 SSE 9 13 5 7 1010.6 1010.6 0.0
22/10:30pm 22.9 20.1 1.8 25 9.9 SE 6 7 3 4 1010.7 1010.7 0.0
22/10:00pm 24.9 19.7 -2.8 16 12.1 SSE 15 17 8 9 1010.6 1010.6 0.0
22/09:30pm 25.6 20.6 -3.9 14 12.7 S 13 17 7 9 1010.4 1010.4 0.0
22/09:00pm 26.3 20.7 -3.0 14 12.9 S 17 20 9 11 1010.3 1010.3 0.0
22/08:30pm 26.6 21.7 4.1 23 11.3 SSE 19 26 10 14 1010.1 1010.1 0.0
22/08:00pm 26.5 22.7 7.6 30 10.1 SSW 17 26 9 14 1009.9 1009.9 0.0
22/07:30pm 27.1 23.1 6.6 27 10.8 SW 17 20 9 11 1009.8 1009.8 0.0
22/07:00pm 27.7 23.9 9.8 32 10.0 SSW 20 26 11 14 1009.6 1009.6 0.0
22/06:30pm 26.9 23.0 12.2 40 8.5 SW 24 30 13 16 1009.5 1009.5 0.0
22/06:00pm 26.8 22.9 13.4 43 7.9 SSW 26 32 14 17 1009.5 1009.5 0.0
22/05:30pm 26.1 20.1 10.1 36 8.9 SW 32 37 17 20 1009.8 1009.8 0.0
22/05:00pm 26.3 21.5 12.9 43 7.8 SW 30 35 16 19 1010.1 1010.1 0.0
22/04:30pm 25.7 22.6 15.5 53 6.2 SW 26 33 14 18 1010.3 1010.3 0.0
22/04:00pm 26.1 21.1 10.8 38 8.6 SW 28 33 15 18 1010.5 1010.5 0.0
22/03:30pm 25.8 21.8 14.2 48 6.9 SW 28 32 15 17 1010.7 1010.7 0.0
22/03:00pm 24.6 20.6 14.1 52 6.2 SW 28 33 15 18 1010.8 1010.8 0.0
22/02:30pm 25.2 21.0 12.3 44 7.4 SW 26 30 14 16 1011.0 1011.0 0.0
22/02:00pm 25.6 20.7 11.3 40 8.1 SSW 28 33 15 18 1011.2 1011.2 0.0
22/01:30pm 25.0 20.9 11.6 43 7.6 SW 24 32 13 17 1011.5 1011.5 0.0
22/01:00pm 25.0 19.7 6.8 31 9.5 SW 24 30 13 16 1011.5 1011.5 0.0
22/12:30pm 24.9 20.0 3.9 25 10.4 WSW 19 24 10 13 1011.7 1011.7 0.0
22/12:00pm 24.5 19.9 6.5 31 9.3 WSW 20 26 11 14 1011.8 1011.8 0.0
22/11:30am 24.6 21.0 6.7 31 9.3 SW 15 19 8 10 1011.9 1011.9 0.0
22/11:00am 24.2 22.7 13.2 50 6.4 W 13 15 7 8 1012.2 1012.2 0.0
22/10:30am 23.5 21.6 13.1 52 6.0 W 15 19 8 10 1012.3 1012.3 0.0
22/10:00am 23.6 21.0 10.6 44 7.2 W 15 19 8 10 1011.9 1011.9 0.0
22/09:30am 23.7 23.2 12.5 49 6.4 NW 7 11 4 6 1011.9 1011.9 0.0
22/09:00am 23.2 21.6 10.3 44 7.1 N 9 11 5 6 1011.7 1011.7 0.0
22/08:30am 22.3 20.9 10.9 48 6.3 N 9 11 5 6 1011.6 1011.6 0.0
22/08:00am 21.5 20.2 6.0 36 7.8 ESE 2 6 1 3 1011.5 1011.5 0.0
22/07:30am 18.7 16.5 5.1 40 6.6 E 6 7 3 4 1011.4 1011.4 0.0
22/07:00am 16.1 13.5 4.1 45 5.6 ENE 7 7 4 4 1011.1 1011.1 0.0
22/06:30am 15.0 12.0 4.2 48 5.0 ENE 9 11 5 6 1010.8 1010.8 0.0
22/06:00am 14.3 11.4 4.9 53 4.4 ENE 9 9 5 5 1010.7 1010.7 0.0
22/05:30am 15.4 12.9 4.5 48 5.1 ENE 7 9 4 5 1010.1 1010.1 0.0
22/05:00am 16.0 14.0 4.5 46 5.4 ESE 4 7 2 4 1009.8 1009.8 0.0
22/04:30am 15.1 13.2 7.4 60 3.8 SSE 7 9 4 5 1009.9 1009.9 0.0
22/04:00am 16.3 13.1 2.9 40 6.1 ENE 9 9 5 5 1009.5 1009.5 0.0
22/03:30am 15.7 14.5 4.6 47 5.2 CALM 0 0 0 0 1009.6 1009.6 0.0
22/03:00am 16.9 14.6 4.7 44 5.8 N 6 9 3 5 1009.6 1009.6 0.0
22/02:30am 16.9 15.7 4.7 44 5.8 CALM 0 0 0 0 1009.7 1009.7 0.0
22/02:00am 16.9 15.9 5.8 48 5.4 CALM 0 0 0 0 1009.7 1009.7 0.0
22/01:30am 17.5 15.8 5.8 46 5.7 SE 4 7 2 4 1009.6 1009.6 0.0
22/01:00am 19.7 17.2 3.7 34 7.6 NE 6 7 3 4 1009.9 1009.9 0.0
22/12:30am 20.6 16.9 0.2 25 9.1 SW 9 9 5 5 1010.3 1010.3 0.0
22/12:00am 20.4 19.0 3.3 32 8.1 CALM 0 7 0 4 1010.6 1010.6 0.0
 
Date/Time
CDT
Temp
°C
App
Temp
°C
Dew
Point
°C
Rel
Hum
%
Delta-T
°C
Wind Press
QNH
hPa
Press
MSL
hPa
Rain since
9am
mm
Dir  Spd
km/h
Gust
km/h
Spd
kts
Gust
kts
21/11:30pm 22.0 18.4 0.7 24 9.7 S 9 11 5 6 1010.8 1010.8 0.0
21/11:00pm 21.7 17.8 0.9 25 9.5 S 11 15 6 8 1010.9 1010.9 0.0
21/10:30pm 23.1 19.3 1.8 24 10.0 SSW 11 17 6 9 1010.9 1010.9 0.0
21/10:00pm 23.7 19.5 1.6 23 10.4 SE 13 17 7 9 1010.7 1010.7 0.0
21/09:30pm 25.0 20.2 0.5 20 11.4 SSE 15 26 8 14 1010.5 1010.5 0.0
21/09:00pm 25.7 21.1 1.6 20 11.5 SE 15 22 8 12 1010.2 1010.2 0.0

Other formats

Comma delimited format used in spreadsheet applications
http://www.bom.gov.au/fwo/IDS60801/IDS60801.94672.axf

JavaScript Object Notation format (JSON) in row-major order
http://www.bom.gov.au/fwo/IDS60801/IDS60801.94672.json

Data quality

Most of these data are generated automatically and are frequently updated. Quality checks on data are not normally performed. It is possible for incorrect values to appear. Refer to information at About Latest Weather Observations and please check the disclaimer before using these data.